createdAt,value
2018-02-20T00:00:33.287Z,1011.50
2018-02-20T00:01:33.321Z,1011.50
2018-02-20T00:02:33.287Z,1011.51
2018-02-20T00:03:33.281Z,1011.50
2018-02-20T00:04:33.315Z,1011.51
2018-02-20T00:05:33.356Z,1011.50
2018-02-20T00:06:33.339Z,1011.52
2018-02-20T00:07:33.315Z,1011.53
2018-02-20T00:08:33.358Z,1011.55
2018-02-20T00:09:33.333Z,1011.53
2018-02-20T00:10:33.324Z,1011.52
2018-02-20T00:11:33.329Z,1011.51
2018-02-20T00:12:33.333Z,1011.54
2018-02-20T00:13:33.338Z,1011.55
2018-02-20T00:14:33.359Z,1011.58
2018-02-20T00:15:33.340Z,1011.59
2018-02-20T00:16:33.344Z,1011.54
2018-02-20T00:17:33.384Z,1011.56
2018-02-20T00:18:33.361Z,1011.56
2018-02-20T00:19:33.403Z,1011.55
2018-02-20T00:20:33.369Z,1011.54
2018-02-20T00:21:33.386Z,1011.52
2018-02-20T00:22:33.371Z,1011.50
2018-02-20T00:23:33.390Z,1011.48
2018-02-20T00:24:33.398Z,1011.48
2018-02-20T00:25:33.397Z,1011.50
2018-02-20T00:26:33.402Z,1011.52
2018-02-20T00:27:34.035Z,1011.52
2018-02-20T00:29:33.418Z,1011.46
2018-02-20T00:30:33.431Z,1011.46
2018-02-20T00:31:33.433Z,1011.47
2018-02-20T00:32:33.414Z,1011.47
2018-02-20T00:33:33.431Z,1011.43
2018-02-20T00:34:33.434Z,1011.46
2018-02-20T00:35:33.456Z,1011.44
2018-02-20T00:36:33.448Z,1011.42
2018-02-20T00:37:33.438Z,1011.41
2018-02-20T00:38:33.446Z,1011.41
2018-02-20T00:40:56.016Z,1011.42
2018-02-20T00:58:37.373Z,1011.27
2018-02-20T00:59:37.338Z,1011.30
2018-02-20T01:00:37.388Z,1011.32
2018-02-20T01:01:37.359Z,1011.26
2018-02-20T01:02:37.395Z,1011.26
2018-02-20T01:03:37.379Z,1011.21
2018-02-20T01:04:37.360Z,1011.20
2018-02-20T01:05:37.376Z,1011.19
2018-02-20T01:06:37.374Z,1011.20
2018-02-20T01:07:37.408Z,1011.20
2018-02-20T01:08:37.418Z,1011.14
2018-02-20T01:09:37.399Z,1011.20
2018-02-20T01:10:37.450Z,1011.18
2018-02-20T01:11:37.410Z,1011.16
2018-02-20T01:12:37.413Z,1011.19
2018-02-20T01:13:37.413Z,1011.17
2018-02-20T01:14:37.433Z,1011.20
2018-02-20T01:15:37.419Z,1011.17
2018-02-20T01:16:37.428Z,1011.17
2018-02-20T01:17:37.437Z,1011.16
2018-02-20T01:18:37.429Z,1011.16
2018-02-20T01:19:37.464Z,1011.14
2018-02-20T01:20:37.481Z,1011.14
2018-02-20T01:21:37.497Z,1011.16
2018-02-20T01:22:37.458Z,1011.17
2018-02-20T01:23:37.439Z,1011.16
2018-02-20T01:24:37.466Z,1011.16
2018-02-20T01:25:37.470Z,1011.10
2018-02-20T01:26:37.474Z,1011.10
2018-02-20T01:27:37.472Z,1011.08
2018-02-20T01:28:37.477Z,1011.11
2018-02-20T01:29:37.498Z,1011.13
2018-02-20T01:30:37.507Z,1011.14
2018-02-20T01:31:37.471Z,1011.16
2018-02-20T01:32:37.503Z,1011.14
2018-02-20T01:33:37.477Z,1011.18
2018-02-20T01:34:37.516Z,1011.11
2018-02-20T01:35:37.567Z,1011.10
2018-02-20T01:36:37.537Z,1011.11
2018-02-20T01:37:37.493Z,1011.11
2018-02-20T01:38:37.510Z,1011.13
2018-02-20T01:39:37.522Z,1011.15
2018-02-20T01:40:37.533Z,1011.14
2018-02-20T01:41:37.522Z,1011.22
2018-02-20T01:42:37.540Z,1011.23
2018-02-20T01:43:37.520Z,1011.22
2018-02-20T01:44:37.550Z,1011.30
2018-02-20T01:45:37.537Z,1011.27
2018-02-20T01:46:37.533Z,1011.28
2018-02-20T01:47:37.552Z,1011.30
2018-02-20T01:48:37.553Z,1011.25
2018-02-20T01:49:37.566Z,1011.29
2018-02-20T01:50:37.585Z,1011.32
2018-02-20T01:51:37.580Z,1011.27
2018-02-20T01:52:37.591Z,1011.28
2018-02-20T01:53:37.576Z,1011.26
2018-02-20T01:54:37.565Z,1011.31
2018-02-20T01:55:37.585Z,1011.29
2018-02-20T01:56:37.589Z,1011.32
2018-02-20T01:57:37.590Z,1011.31
2018-02-20T01:58:37.590Z,1011.29
2018-02-20T01:59:37.620Z,1011.35
2018-02-20T02:00:37.609Z,1011.31
2018-02-20T02:01:37.606Z,1011.32
2018-02-20T02:02:37.688Z,1011.35
2018-02-20T02:03:37.606Z,1011.33
2018-02-20T02:04:37.649Z,1011.36
2018-02-20T02:05:37.615Z,1011.33
2018-02-20T02:06:37.646Z,1011.38
2018-02-20T02:07:37.629Z,1011.35
2018-02-20T02:08:37.617Z,1011.36
2018-02-20T02:09:37.639Z,1011.37
2018-02-20T02:10:37.644Z,1011.34
2018-02-20T02:11:37.655Z,1011.33
2018-02-20T02:12:37.635Z,1011.34
2018-02-20T02:13:37.645Z,1011.35
2018-02-20T02:14:37.675Z,1011.31
2018-02-20T02:15:37.673Z,1011.34
2018-02-20T02:16:37.692Z,1011.32
2018-02-20T02:17:37.671Z,1011.37
2018-02-20T02:18:37.678Z,1011.37
2018-02-20T02:19:37.711Z,1011.34
2018-02-20T02:20:37.683Z,1011.35
2018-02-20T02:21:37.710Z,1011.37
2018-02-20T02:22:37.701Z,1011.39
2018-02-20T02:23:37.686Z,1011.37
2018-02-20T02:24:37.691Z,1011.35
2018-02-20T02:25:37.829Z,1011.35
2018-02-20T02:26:37.724Z,1011.35
2018-02-20T02:27:37.720Z,1011.32
2018-02-20T02:28:37.732Z,1011.31
2018-02-20T02:29:37.745Z,1011.28
2018-02-20T02:30:37.734Z,1011.26
2018-02-20T02:31:37.732Z,1011.29
2018-02-20T02:32:37.720Z,1011.32
2018-02-20T02:33:37.725Z,1011.29
2018-02-20T02:34:37.726Z,1011.32
2018-02-20T02:35:37.734Z,1011.31
2018-02-20T02:36:37.748Z,1011.34
2018-02-20T02:37:37.766Z,1011.28
2018-02-20T02:38:37.754Z,1011.28
2018-02-20T02:39:37.762Z,1011.26
2018-02-20T02:40:37.752Z,1011.26
2018-02-20T02:41:37.786Z,1011.30
2018-02-20T02:42:37.762Z,1011.29
2018-02-20T02:43:37.763Z,1011.29
2018-02-20T02:44:37.776Z,1011.28
2018-02-20T02:45:37.768Z,1011.26
2018-02-20T02:46:37.789Z,1011.25
2018-02-20T02:47:37.793Z,1011.28
2018-02-20T02:48:37.776Z,1011.32
2018-02-20T02:49:37.781Z,1011.29
2018-02-20T02:50:37.803Z,1011.28
2018-02-20T02:51:37.802Z,1011.28
2018-02-20T02:52:37.802Z,1011.28
2018-02-20T02:53:37.806Z,1011.25
2018-02-20T02:54:37.821Z,1011.28
2018-02-20T02:55:37.817Z,1011.29
2018-02-20T02:56:37.815Z,1011.23
2018-02-20T02:57:37.862Z,1011.26
2018-02-20T02:58:37.842Z,1011.25
2018-02-20T02:59:37.848Z,1011.24
2018-02-20T03:00:37.857Z,1011.26
2018-02-20T03:01:37.872Z,1011.24
2018-02-20T03:02:37.840Z,1011.24
2018-02-20T03:03:37.870Z,1011.24
2018-02-20T03:04:37.849Z,1011.24
2018-02-20T03:05:37.874Z,1011.22
2018-02-20T03:06:38.534Z,1011.18
2018-02-20T03:07:37.850Z,1011.16
2018-02-20T03:08:37.878Z,1011.19
2018-02-20T03:09:37.874Z,1011.24
2018-02-20T03:10:37.879Z,1011.24
2018-02-20T03:11:37.910Z,1011.24
2018-02-20T03:12:37.873Z,1011.25
2018-02-20T03:13:37.891Z,1011.26
2018-02-20T03:14:37.877Z,1011.27
2018-02-20T03:15:37.894Z,1011.33
2018-02-20T03:16:37.935Z,1011.33
2018-02-20T03:17:37.895Z,1011.32
2018-02-20T03:18:37.904Z,1011.33
2018-02-20T03:19:37.950Z,1011.34
2018-02-20T03:20:37.909Z,1011.30
2018-02-20T03:21:37.916Z,1011.27
2018-02-20T03:22:37.907Z,1011.28
2018-02-20T03:23:37.918Z,1011.27
2018-02-20T03:24:37.923Z,1011.29
2018-02-20T03:25:37.950Z,1011.32
2018-02-20T03:26:37.934Z,1011.37
2018-02-20T03:27:37.942Z,1011.35
2018-02-20T03:28:37.935Z,1011.30
2018-02-20T03:29:38.025Z,1011.33
2018-02-20T03:30:37.954Z,1011.28
2018-02-20T03:31:37.950Z,1011.29
2018-02-20T03:32:37.955Z,1011.27
2018-02-20T03:33:37.958Z,1011.28
2018-02-20T03:34:37.965Z,1011.29
2018-02-20T03:35:37.961Z,1011.28
2018-02-20T03:36:38.004Z,1011.30
2018-02-20T03:37:38.019Z,1011.33
2018-02-20T03:38:37.970Z,1011.33
2018-02-20T03:39:38.010Z,1011.35
2018-02-20T03:40:37.989Z,1011.34
2018-02-20T03:41:37.976Z,1011.36
2018-02-20T03:42:38.010Z,1011.32
2018-02-20T03:43:37.985Z,1011.31
2018-02-20T03:44:37.999Z,1011.33
2018-02-20T03:45:38.000Z,1011.33
2018-02-20T03:46:38.001Z,1011.33
2018-02-20T03:47:38.097Z,1011.35
2018-02-20T03:48:38.011Z,1011.31
2018-02-20T03:49:38.010Z,1011.27
2018-02-20T03:50:38.044Z,1011.30
2018-02-20T03:51:38.023Z,1011.26
2018-02-20T03:52:38.021Z,1011.25
2018-02-20T03:53:38.022Z,1011.24
2018-02-20T03:54:38.024Z,1011.18
2018-02-20T03:55:38.042Z,1011.20
2018-02-20T03:56:38.056Z,1011.17
2018-02-20T03:57:38.090Z,1011.20
2018-02-20T03:58:38.046Z,1011.23
2018-02-20T03:59:38.043Z,1011.24
2018-02-20T04:00:39.031Z,1011.24
2018-02-20T04:01:38.073Z,1011.22
2018-02-20T04:02:38.080Z,1011.30
2018-02-20T04:03:38.072Z,1011.31
2018-02-20T04:04:38.076Z,1011.32
2018-02-20T04:05:38.105Z,1011.38
2018-02-20T04:06:38.065Z,1011.39
2018-02-20T04:07:38.088Z,1011.39
2018-02-20T04:08:38.080Z,1011.38
2018-02-20T04:09:38.082Z,1011.42
2018-02-20T04:10:38.089Z,1011.38
2018-02-20T04:11:38.096Z,1011.40
2018-02-20T04:12:38.099Z,1011.47
2018-02-20T04:13:38.096Z,1011.47
2018-02-20T04:14:38.118Z,1011.48
2018-02-20T04:15:38.107Z,1011.51
2018-02-20T04:16:38.120Z,1011.53
2018-02-20T04:17:38.115Z,1011.56
2018-02-20T04:18:38.119Z,1011.57
2018-02-20T04:19:38.116Z,1011.60
2018-02-20T04:20:38.121Z,1011.64
2018-02-20T04:21:38.139Z,1011.63
2018-02-20T04:22:38.134Z,1011.63
2018-02-20T04:23:38.149Z,1011.61
2018-02-20T04:24:38.158Z,1011.60
2018-02-20T04:25:38.135Z,1011.56
2018-02-20T04:26:38.142Z,1011.53
2018-02-20T04:27:38.137Z,1011.51
2018-02-20T04:28:38.174Z,1011.48
2018-02-20T04:29:38.151Z,1011.50
2018-02-20T04:30:38.167Z,1011.49
2018-02-20T04:31:38.153Z,1011.48
2018-02-20T04:32:38.183Z,1011.49
2018-02-20T04:33:38.174Z,1011.49
2018-02-20T04:34:38.165Z,1011.49
2018-02-20T04:35:38.171Z,1011.48
2018-02-20T04:36:38.186Z,1011.51
2018-02-20T04:37:38.222Z,1011.46
2018-02-20T04:38:38.192Z,1011.50
2018-02-20T04:39:38.183Z,1011.53
2018-02-20T04:40:38.206Z,1011.49
2018-02-20T04:41:38.272Z,1011.56
2018-02-20T04:42:38.208Z,1011.57
2018-02-20T04:43:38.259Z,1011.59
2018-02-20T04:44:38.253Z,1011.58
2018-02-20T04:45:38.206Z,1011.60
2018-02-20T04:46:38.208Z,1011.62
2018-02-20T04:47:38.243Z,1011.60
2018-02-20T04:48:38.247Z,1011.59
2018-02-20T04:49:38.224Z,1011.60
2018-02-20T04:50:38.228Z,1011.58
2018-02-20T04:51:38.236Z,1011.57
2018-02-20T04:52:38.229Z,1011.55
2018-02-20T04:53:38.235Z,1011.54
2018-02-20T04:54:38.241Z,1011.57
2018-02-20T04:55:38.258Z,1011.57
2018-02-20T04:56:38.253Z,1011.54
2018-02-20T04:57:38.244Z,1011.60
2018-02-20T04:58:38.260Z,1011.55
2018-02-20T04:59:38.270Z,1011.56
2018-02-20T05:00:38.292Z,1011.55
2018-02-20T05:01:38.264Z,1011.55
2018-02-20T05:02:38.271Z,1011.58
2018-02-20T05:03:38.282Z,1011.55
2018-02-20T05:04:38.292Z,1011.58
2018-02-20T05:05:38.290Z,1011.56
2018-02-20T05:06:38.297Z,1011.57
2018-02-20T05:07:38.298Z,1011.57
2018-02-20T05:08:38.299Z,1011.62
2018-02-20T05:09:38.317Z,1011.57
2018-02-20T05:10:38.377Z,1011.58
2018-02-20T05:11:38.304Z,1011.63
2018-02-20T05:12:38.338Z,1011.59
2018-02-20T05:13:38.322Z,1011.56
2018-02-20T05:14:38.334Z,1011.55
2018-02-20T05:15:38.309Z,1011.56
2018-02-20T05:16:38.311Z,1011.59
2018-02-20T05:17:38.332Z,1011.57
2018-02-20T05:18:38.329Z,1011.58
2018-02-20T05:19:38.333Z,1011.54
2018-02-20T05:20:38.366Z,1011.60
2018-02-20T05:21:38.337Z,1011.60
2018-02-20T05:22:38.428Z,1011.59
2018-02-20T05:23:38.349Z,1011.62
2018-02-20T05:24:38.347Z,1011.63
2018-02-20T05:25:38.353Z,1011.64
2018-02-20T05:26:38.359Z,1011.66
2018-02-20T05:27:38.384Z,1011.60
2018-02-20T05:28:38.354Z,1011.63
2018-02-20T05:29:38.398Z,1011.65
2018-02-20T05:30:38.372Z,1011.60
2018-02-20T05:31:38.392Z,1011.61
2018-02-20T05:32:38.398Z,1011.65
2018-02-20T05:33:38.392Z,1011.63
2018-02-20T05:34:38.393Z,1011.67
2018-02-20T05:35:38.411Z,1011.65
2018-02-20T05:36:38.421Z,1011.67
2018-02-20T05:37:38.435Z,1011.70
2018-02-20T05:38:38.429Z,1011.65
2018-02-20T05:39:38.426Z,1011.69
2018-02-20T05:40:38.424Z,1011.64
2018-02-20T05:41:38.417Z,1011.71
2018-02-20T05:42:38.432Z,1011.65
2018-02-20T05:43:38.417Z,1011.68
2018-02-20T05:44:38.430Z,1011.64
2018-02-20T05:45:38.429Z,1011.67
2018-02-20T05:46:38.426Z,1011.64
2018-02-20T05:47:38.445Z,1011.64
2018-02-20T05:48:38.429Z,1011.64
2018-02-20T05:49:38.445Z,1011.60
2018-02-20T05:50:38.448Z,1011.59
2018-02-20T05:51:38.440Z,1011.65
2018-02-20T05:52:38.445Z,1011.62
2018-02-20T05:53:38.464Z,1011.65
2018-02-20T05:54:38.455Z,1011.69
2018-02-20T05:55:38.515Z,1011.72
2018-02-20T05:56:38.469Z,1011.71
2018-02-20T05:57:38.485Z,1011.72
2018-02-20T05:58:38.483Z,1011.74
2018-02-20T05:59:38.466Z,1011.76
2018-02-20T06:00:38.490Z,1011.81
2018-02-20T06:01:38.473Z,1011.80
2018-02-20T06:02:38.472Z,1011.84
2018-02-20T06:03:38.481Z,1011.86
2018-02-20T06:04:38.577Z,1011.88
2018-02-20T06:05:38.531Z,1011.89
2018-02-20T06:06:38.500Z,1011.91
2018-02-20T06:07:38.512Z,1011.95
2018-02-20T06:08:38.515Z,1011.92
2018-02-20T06:09:38.525Z,1011.96
2018-02-20T06:10:38.539Z,1011.94
2018-02-20T06:11:38.529Z,1011.98
2018-02-20T06:12:38.532Z,1012.00
2018-02-20T06:13:38.551Z,1012.00
2018-02-20T06:14:38.551Z,1011.96
2018-02-20T06:15:38.593Z,1011.97
2018-02-20T06:16:38.520Z,1011.98
2018-02-20T06:17:38.530Z,1012.02
2018-02-20T06:18:38.548Z,1011.96
2018-02-20T06:19:38.562Z,1011.96
2018-02-20T06:20:38.540Z,1011.95
2018-02-20T06:21:38.553Z,1011.98
2018-02-20T06:22:38.573Z,1012.00
2018-02-20T06:23:38.556Z,1011.98
2018-02-20T06:24:38.560Z,1012.00
2018-02-20T06:25:38.563Z,1012.01
2018-02-20T06:26:38.552Z,1011.99
2018-02-20T06:27:38.567Z,1012.08
2018-02-20T06:28:38.584Z,1012.08
2018-02-20T06:29:38.566Z,1012.06
2018-02-20T06:30:38.586Z,1012.06
2018-02-20T06:31:38.571Z,1012.11
2018-02-20T06:32:38.612Z,1012.09
2018-02-20T06:33:38.581Z,1012.11
2018-02-20T06:34:38.588Z,1012.12
2018-02-20T06:35:38.612Z,1012.11
2018-02-20T06:36:38.622Z,1012.10
2018-02-20T06:37:38.598Z,1012.09
2018-02-20T06:38:38.596Z,1012.14
2018-02-20T06:39:38.608Z,1012.10
2018-02-20T06:40:38.596Z,1012.10
2018-02-20T06:41:38.652Z,1012.15
2018-02-20T06:42:38.606Z,1012.13
2018-02-20T06:43:38.659Z,1012.09
2018-02-20T06:44:38.624Z,1012.10
2018-02-20T06:45:38.615Z,1012.16
2018-02-20T06:46:38.629Z,1012.13
2018-02-20T06:47:38.630Z,1012.12
2018-02-20T06:48:38.638Z,1012.13
2018-02-20T06:49:38.633Z,1012.15
2018-02-20T06:50:38.647Z,1012.12
2018-02-20T06:51:38.639Z,1012.07
2018-02-20T06:52:38.643Z,1012.06
2018-02-20T06:53:38.642Z,1012.09
2018-02-20T06:54:38.665Z,1012.07
2018-02-20T06:55:38.671Z,1012.07
2018-02-20T06:56:38.652Z,1012.08
2018-02-20T06:57:38.715Z,1012.05
2018-02-20T06:58:38.689Z,1012.07
2018-02-20T06:59:38.677Z,1012.07
2018-02-20T07:00:38.705Z,1012.10
2018-02-20T07:01:38.691Z,1012.12
2018-02-20T07:02:38.713Z,1012.11
2018-02-20T07:03:38.686Z,1012.11
2018-02-20T07:04:38.724Z,1012.13
2018-02-20T07:05:38.730Z,1012.18
2018-02-20T07:06:38.717Z,1012.11
2018-02-20T07:07:38.691Z,1012.13
2018-02-20T07:08:38.703Z,1012.13
2018-02-20T07:09:38.725Z,1012.13
2018-02-20T07:10:38.766Z,1012.09
2018-02-20T07:11:38.714Z,1012.09
2018-02-20T07:12:38.724Z,1012.09
2018-02-20T07:13:38.739Z,1012.09
2018-02-20T07:14:38.879Z,1012.06
2018-02-20T07:15:38.725Z,1012.09
2018-02-20T07:16:38.754Z,1012.07
2018-02-20T07:17:38.736Z,1012.07
2018-02-20T07:18:38.746Z,1012.06
2018-02-20T07:19:38.748Z,1012.07
2018-02-20T07:20:39.529Z,1012.06
2018-02-20T07:21:38.747Z,1012.07
2018-02-20T07:22:38.834Z,1012.06
2018-02-20T07:23:38.766Z,1012.07
2018-02-20T07:24:38.761Z,1012.08
2018-02-20T07:25:38.796Z,1012.08
2018-02-20T07:26:38.824Z,1012.09
2018-02-20T07:27:38.772Z,1012.06
2018-02-20T07:28:38.800Z,1012.07
2018-02-20T07:29:38.823Z,1012.07
2018-02-20T07:30:38.815Z,1012.06
2018-02-20T07:31:38.781Z,1012.05
2018-02-20T07:32:38.852Z,1012.07
2018-02-20T07:33:38.811Z,1012.02
2018-02-20T07:34:38.816Z,1012.08
2018-02-20T07:35:38.828Z,1012.10
2018-02-20T07:36:38.817Z,1012.07
2018-02-20T07:37:38.809Z,1012.02
2018-02-20T07:38:38.893Z,1012.05
2018-02-20T07:39:38.837Z,1012.08
2018-02-20T07:40:38.850Z,1012.11
2018-02-20T07:41:38.845Z,1012.07
2018-02-20T07:42:38.881Z,1012.06
2018-02-20T07:43:38.842Z,1012.06
2018-02-20T07:44:38.837Z,1012.08
2018-02-20T07:45:38.837Z,1012.10
2018-02-20T07:46:38.889Z,1012.09
2018-02-20T07:47:38.871Z,1012.08
2018-02-20T07:48:38.845Z,1012.05
2018-02-20T07:49:38.893Z,1012.04
2018-02-20T07:50:38.873Z,1012.03
2018-02-20T07:51:38.879Z,1012.05
2018-02-20T07:52:38.860Z,1012.07
2018-02-20T07:53:38.963Z,1012.05
2018-02-20T07:54:38.934Z,1012.05
2018-02-20T07:55:38.922Z,1012.04
2018-02-20T07:56:38.883Z,1012.08
2018-02-20T07:57:38.890Z,1012.08
2018-02-20T07:58:38.944Z,1012.11
2018-02-20T07:59:38.899Z,1012.11
2018-02-20T08:00:38.920Z,1012.11
2018-02-20T08:01:38.910Z,1012.13
2018-02-20T08:02:38.925Z,1012.13
2018-02-20T08:03:38.933Z,1012.19
2018-02-20T08:04:38.938Z,1012.19
2018-02-20T08:05:38.931Z,1012.22
2018-02-20T08:06:38.939Z,1012.25
2018-02-20T08:07:39.021Z,1012.26
2018-02-20T08:08:38.950Z,1012.25
2018-02-20T08:09:38.950Z,1012.20
2018-02-20T08:10:38.950Z,1012.22
2018-02-20T08:11:38.959Z,1012.24
2018-02-20T08:12:39.013Z,1012.21
2018-02-20T08:13:38.964Z,1012.19
2018-02-20T08:14:38.975Z,1012.19
2018-02-20T08:15:38.980Z,1012.22
2018-02-20T08:16:39.029Z,1012.26
2018-02-20T08:17:38.987Z,1012.27
2018-02-20T08:18:39.100Z,1012.28
2018-02-20T08:19:39.008Z,1012.31
2018-02-20T08:20:39.009Z,1012.35
2018-02-20T08:21:39.033Z,1012.38
2018-02-20T08:22:39.040Z,1012.41
2018-02-20T08:23:39.039Z,1012.37
2018-02-20T08:24:39.036Z,1012.43
2018-02-20T08:25:39.078Z,1012.45
2018-02-20T08:26:39.048Z,1012.45
2018-02-20T08:27:39.081Z,1012.48
2018-02-20T08:28:39.113Z,1012.48
2018-02-20T08:29:39.116Z,1012.52
2018-02-20T08:30:39.098Z,1012.54
2018-02-20T08:31:39.125Z,1012.55
2018-02-20T08:32:39.111Z,1012.50
2018-02-20T08:33:39.139Z,1012.52
2018-02-20T08:34:39.198Z,1012.52
2018-02-20T08:35:39.168Z,1012.51
2018-02-20T08:36:39.168Z,1012.49
2018-02-20T08:37:39.166Z,1012.51
2018-02-20T08:38:39.191Z,1012.50
2018-02-20T08:39:39.185Z,1012.54
2018-02-20T08:40:39.197Z,1012.57
2018-02-20T08:41:39.218Z,1012.56
2018-02-20T08:42:39.253Z,1012.58
2018-02-20T08:43:39.261Z,1012.62
2018-02-20T08:44:39.248Z,1012.61
2018-02-20T08:45:39.266Z,1012.68
2018-02-20T08:46:39.297Z,1012.64
2018-02-20T08:47:39.291Z,1012.67
2018-02-20T08:48:39.306Z,1012.70
2018-02-20T08:49:39.312Z,1012.73
2018-02-20T08:50:39.335Z,1012.77
2018-02-20T08:51:39.334Z,1012.77
2018-02-20T08:52:39.341Z,1012.75
2018-02-20T08:53:39.361Z,1012.75
2018-02-20T08:54:39.365Z,1012.72
2018-02-20T08:55:39.371Z,1012.69
2018-02-20T08:56:39.393Z,1012.66
2018-02-20T08:57:39.470Z,1012.66
2018-02-20T08:58:39.543Z,1012.63
2018-02-20T08:59:39.462Z,1012.59
2018-02-20T09:00:39.448Z,1012.60
2018-02-20T09:01:39.475Z,1012.56
2018-02-20T09:02:39.495Z,1012.59
2018-02-20T09:03:39.499Z,1012.56
2018-02-20T09:04:39.497Z,1012.52
2018-02-20T09:05:39.539Z,1012.50
2018-02-20T09:06:39.548Z,1012.47
2018-02-20T09:07:39.538Z,1012.50
2018-02-20T09:08:39.564Z,1012.50
2018-02-20T09:09:39.618Z,1012.47
2018-02-20T09:10:39.588Z,1012.50
2018-02-20T09:11:39.604Z,1012.46
2018-02-20T09:12:39.622Z,1012.49
2018-02-20T09:13:39.625Z,1012.51
2018-02-20T09:14:39.658Z,1012.47
2018-02-20T09:15:39.636Z,1012.51
2018-02-20T09:16:39.709Z,1012.51
2018-02-20T09:17:39.756Z,1012.49
2018-02-20T09:18:39.740Z,1012.51
2018-02-20T09:19:39.695Z,1012.49
2018-02-20T09:20:39.722Z,1012.56
2018-02-20T09:21:39.724Z,1012.56
2018-02-20T09:22:39.728Z,1012.55
2018-02-20T09:23:39.761Z,1012.62
2018-02-20T09:24:39.769Z,1012.62
2018-02-20T09:25:39.833Z,1012.63
2018-02-20T09:26:39.809Z,1012.64
2018-02-20T09:27:39.839Z,1012.64
2018-02-20T09:28:39.828Z,1012.61
2018-02-20T09:29:39.855Z,1012.62
2018-02-20T09:30:39.868Z,1012.60
2018-02-20T09:31:39.895Z,1012.63
2018-02-20T09:32:39.906Z,1012.65
2018-02-20T09:33:39.898Z,1012.62
2018-02-20T09:34:39.948Z,1012.62
2018-02-20T09:35:39.973Z,1012.60
2018-02-20T09:36:39.979Z,1012.64
2018-02-20T09:37:39.962Z,1012.63
2018-02-20T09:38:39.970Z,1012.61
2018-02-20T09:39:39.980Z,1012.66
2018-02-20T09:40:40.010Z,1012.65
2018-02-20T09:41:40.021Z,1012.61
2018-02-20T09:42:40.024Z,1012.65
2018-02-20T09:43:40.115Z,1012.62
2018-02-20T09:44:40.067Z,1012.57
2018-02-20T09:45:40.076Z,1012.59
2018-02-20T09:46:40.104Z,1012.59
2018-02-20T09:47:40.114Z,1012.61
2018-02-20T09:48:40.134Z,1012.57
2018-02-20T09:49:40.151Z,1012.54
2018-02-20T09:50:40.159Z,1012.52
2018-02-20T09:51:40.191Z,1012.49
2018-02-20T09:52:40.226Z,1012.51
2018-02-20T09:53:40.225Z,1012.50
2018-02-20T09:54:40.237Z,1012.52
2018-02-20T09:55:40.248Z,1012.50
2018-02-20T09:56:40.257Z,1012.48
2018-02-20T09:57:40.427Z,1012.51
2018-02-20T09:58:40.290Z,1012.50
2018-02-20T09:59:40.302Z,1012.53
2018-02-20T10:00:40.366Z,1012.54
2018-02-20T10:01:40.363Z,1012.52
2018-02-20T10:02:40.410Z,1012.55
2018-02-20T10:03:40.362Z,1012.56
2018-02-20T10:04:40.527Z,1012.60
2018-02-20T10:05:40.404Z,1012.60
2018-02-20T10:06:40.421Z,1012.63
2018-02-20T10:07:40.434Z,1012.60
2018-02-20T10:08:40.458Z,1012.60
2018-02-20T10:09:40.465Z,1012.59
2018-02-20T10:10:40.476Z,1012.58
2018-02-20T10:11:40.527Z,1012.54
2018-02-20T10:12:40.511Z,1012.54
2018-02-20T10:13:40.584Z,1012.56
2018-02-20T10:14:40.555Z,1012.54
2018-02-20T10:15:40.621Z,1012.56
2018-02-20T10:16:40.644Z,1012.57
2018-02-20T10:17:40.600Z,1012.57
2018-02-20T10:18:40.639Z,1012.60
2018-02-20T10:19:40.650Z,1012.56
2018-02-20T10:20:40.650Z,1012.61
2018-02-20T10:21:40.673Z,1012.54
2018-02-20T10:22:40.718Z,1012.55
2018-02-20T10:23:40.695Z,1012.59
2018-02-20T10:24:40.729Z,1012.60
2018-02-20T10:25:40.721Z,1012.62
2018-02-20T10:26:40.792Z,1012.55
2018-02-20T10:27:40.770Z,1012.57
2018-02-20T10:28:40.811Z,1012.54
2018-02-20T10:29:40.815Z,1012.57
2018-02-20T10:30:40.816Z,1012.57
2018-02-20T10:31:40.841Z,1012.56
2018-02-20T10:32:40.856Z,1012.57
2018-02-20T10:33:40.872Z,1012.60
2018-02-20T10:34:40.890Z,1012.60
2018-02-20T10:35:40.920Z,1012.64
2018-02-20T10:36:40.911Z,1012.59
2018-02-20T10:37:40.932Z,1012.62
2018-02-20T10:38:40.947Z,1012.60
2018-02-20T10:39:40.976Z,1012.57
2018-02-20T10:40:41.001Z,1012.60
2018-02-20T10:41:41.015Z,1012.60
2018-02-20T10:42:41.010Z,1012.66
2018-02-20T10:43:41.413Z,1012.60
2018-02-20T10:44:41.041Z,1012.56
2018-02-20T10:45:41.057Z,1012.60
2018-02-20T10:46:41.088Z,1012.57
2018-02-20T10:47:41.105Z,1012.57
2018-02-20T10:48:41.117Z,1012.60
2018-02-20T10:49:41.172Z,1012.56
2018-02-20T10:50:41.142Z,1012.57
2018-02-20T10:51:41.156Z,1012.55
2018-02-20T10:52:41.181Z,1012.55
2018-02-20T10:53:41.181Z,1012.54
2018-02-20T10:54:41.221Z,1012.56
2018-02-20T10:55:41.274Z,1012.53
2018-02-20T10:56:41.260Z,1012.53
2018-02-20T10:57:41.270Z,1012.60
2018-02-20T10:58:41.280Z,1012.55
2018-02-20T10:59:41.298Z,1012.57
2018-02-20T11:00:41.292Z,1012.57
2018-02-20T11:01:41.373Z,1012.63
2018-02-20T11:02:41.360Z,1012.60
2018-02-20T11:03:41.339Z,1012.59
2018-02-20T11:04:41.365Z,1012.60
2018-02-20T11:05:41.377Z,1012.58
2018-02-20T11:06:41.407Z,1012.58
2018-02-20T11:07:41.474Z,1012.59
2018-02-20T11:08:41.414Z,1012.60
2018-02-20T11:09:41.467Z,1012.60
2018-02-20T11:10:41.481Z,1012.57
2018-02-20T11:11:41.466Z,1012.57
2018-02-20T11:12:41.525Z,1012.58
2018-02-20T11:13:41.481Z,1012.58
2018-02-20T11:14:41.496Z,1012.56
2018-02-20T11:15:41.507Z,1012.57
2018-02-20T11:16:41.584Z,1012.57
2018-02-20T11:17:41.535Z,1012.55
2018-02-20T11:18:41.579Z,1012.57
2018-02-20T11:19:41.568Z,1012.59
2018-02-20T11:20:41.617Z,1012.61
2018-02-20T11:21:41.589Z,1012.63
2018-02-20T11:22:41.607Z,1012.66
2018-02-20T11:23:41.619Z,1012.68
2018-02-20T11:24:41.701Z,1012.69
2018-02-20T11:25:41.682Z,1012.69
2018-02-20T11:26:41.706Z,1012.71
2018-02-20T11:27:41.698Z,1012.69
2018-02-20T11:28:41.701Z,1012.74
2018-02-20T11:29:41.689Z,1012.68
2018-02-20T11:30:41.779Z,1012.68
2018-02-20T11:31:41.737Z,1012.70
2018-02-20T11:32:41.748Z,1012.71
2018-02-20T11:33:41.769Z,1012.71
2018-02-20T11:34:41.826Z,1012.70
2018-02-20T11:35:41.801Z,1012.71
2018-02-20T11:36:41.820Z,1012.71
2018-02-20T11:37:41.840Z,1012.75
2018-02-20T11:38:41.843Z,1012.67
2018-02-20T11:47:29.931Z,1012.67
2018-02-20T11:48:29.915Z,1012.61
2018-02-20T11:51:23.012Z,1012.65
2018-02-20T11:53:17.403Z,1012.65
2018-02-20T11:56:11.293Z,1012.66
2018-02-20T11:57:10.486Z,1012.66
2018-02-20T12:00:03.833Z,1012.68
2018-02-20T12:02:56.922Z,1012.65
2018-02-20T12:04:50.069Z,1012.65
2018-02-20T12:05:50.807Z,1012.62
2018-02-20T12:08:43.932Z,1012.60
2018-02-20T12:10:59.303Z,1012.59
2018-02-20T12:15:44.116Z,1012.60
2018-02-20T12:17:37.292Z,1012.60
2018-02-20T12:18:37.281Z,1012.59
2018-02-20T12:21:30.503Z,1012.54
2018-02-20T12:27:17.552Z,1012.52
2018-02-20T12:30:10.945Z,1012.53
2018-02-20T12:33:04.354Z,1012.49
2018-02-20T12:34:57.950Z,1012.46
2018-02-20T12:35:57.946Z,1012.43
2018-02-20T12:37:51.895Z,1012.44
2018-02-20T12:38:51.496Z,1012.45
2018-02-20T12:44:37.918Z,1012.38
2018-02-20T12:46:31.588Z,1012.40
2018-02-20T12:47:31.604Z,1012.41
2018-02-20T12:49:24.797Z,1012.37
2018-02-20T12:50:24.767Z,1012.41
2018-02-20T12:52:17.939Z,1012.42
2018-02-20T12:53:17.950Z,1012.38
2018-02-20T12:55:11.182Z,1012.43
2018-02-20T12:56:11.172Z,1012.41
2018-02-20T12:59:05.207Z,1012.43
2018-02-20T13:00:05.218Z,1012.44
2018-02-20T13:01:05.225Z,1012.44
2018-02-20T13:02:05.236Z,1012.45
2018-02-20T13:03:05.263Z,1012.42
2018-02-20T13:04:05.271Z,1012.46
2018-02-20T13:05:05.347Z,1012.48
2018-02-20T13:06:05.308Z,1012.43
2018-02-20T13:08:30.645Z,1012.48
2018-02-20T13:10:48.042Z,1012.46
2018-02-20T13:11:47.598Z,1012.48
2018-02-20T13:12:47.644Z,1012.48
2018-02-20T13:13:47.617Z,1012.47
2018-02-20T13:14:47.643Z,1012.49